Details From KONT - Ontario Intl
To KPSP - Palm Springs Intl
Flight Number -
Tags generated
Created
Modified
Stats Distance 56 nm / 104 km
Max Altitude 3,700 ft / 1,128 m
Waypoints 3
Social Downloads 0
Likes 0
Share VATSIM

Download

Looking for another format? Having issues loading an existing format? Contact us
Advertisement - Login to hide

Notes

Basic altitude profile: - Ascent Rate: 2200ft/min - Ascent Speed: 180kts - Cruise Altitude: 12000ft - Cruise Speed: 240kts - Descent Rate: 2000ft/min - Descent Speed: 200kts Options: - Use NATs: no - Use PACOTS: no - Use low airways: yes - Use high airways: no

Route

KONT BANDS KPSP

ID Type Via Altitude Latitude Longitude Leg Dist Tot Dist Heading (true) Name
O KONT APT - 0 ft / 0 m 34.05592˚ -117.60085˚ - 0 nm - Ontario Intl
BANDS FIX - 3,700 ft / 1,128 m 33.88961˚ -116.84948˚ 38 nm 38 nm 105° / 105° -
O KPSP APT - 0 ft / 0 m 33.82968˚ -116.50622˚ 17 nm 56 nm 102° / 102° Palm Springs Intl

Altitude Profile

Advertisement - Login to hide

KONT

Details ICAO KONT (ONT)
Name Ontario Intl
Region United States
Timezone America/Los_Angeles (UTC-7.0)
Stats Elevation 944 ft / 288 m (AMSL)
Location 34.055917° -117.600853°
Runways 2
Magnetic Variation 11.823° E

METAR

KONT 272153Z 27010KT 10SM FEW120 24/10 A2989 RMK AO2 SLP112 T02440100

Decode

TAF

TAF AMD KONT 272027Z 2720/2824 26011G18KT P6SM FEW040 FM280500 VRB05KT P6SM SCT010 FM280900 VRB03KT P6SM BKN010 FM281600 VRB04KT P6SM SCT015 FM282100 26011G18KT P6SM FEW040

Decode

Departure Runways

ID Width Length Bearing (true) Bearing (mag) Surface Threshold Offset Overrun Length
08L 151 ft / 46 m 12,279 ft / 3,743 m 89.96° 78.14° Concrete 997 ft / 304 m 400 ft / 122 m
26L 151 ft / 46 m 10,269 ft / 3,130 m 269.97° 258.15° Concrete 0 ft / 0 m 400 ft / 122 m
26R 151 ft / 46 m 12,279 ft / 3,743 m 269.99° 258.17° Concrete 0 ft / 0 m 400 ft / 122 m
8R 151 ft / 46 m 10,269 ft / 3,130 m 89.95° 78.13° Concrete 0 ft / 0 m 400 ft / 122 m

KPSP

Details ICAO KPSP (PSP)
Name Palm Springs Intl
Region United States
Timezone America/Los_Angeles (UTC-7.0)
Stats Elevation 477 ft / 145 m (AMSL)
Location 33.829677° -116.506218°
Runways 2
Magnetic Variation 11.540° E

METAR

KPSP 272153Z 30011KT 10SM CLR 34/01 A2977 RMK AO2 SLP077 T03440011

Decode

TAF

KPSP 271735Z 2718/2818 33013G21KT P6SM SKC FM280800 VRB06KT P6SM SKC

Decode

Destination Runways

ID Width Length Bearing (true) Bearing (mag) Surface Threshold Offset Overrun Length
13L 75 ft / 23 m 4,958 ft / 1,511 m 143.52° 131.98° Asphalt 0 ft / 0 m 151 ft / 46 m
13R 151 ft / 46 m 10,012 ft / 3,052 m 143.52° 131.98° Asphalt 2,999 ft / 914 m 200 ft / 61 m
31L 151 ft / 46 m 10,012 ft / 3,052 m 323.53° 311.99° Asphalt 1,499 ft / 457 m 200 ft / 61 m
31R 75 ft / 23 m 4,958 ft / 1,511 m 323.53° 311.99° Asphalt 0 ft / 0 m 151 ft / 46 m

Popular Alternatives